Flugplatz Dachau-Gröbenried

Für EDMD sind keine METAR/TAF Berichte vorhanden.
Es werden die Flugwettermeldungen vom Flugplatz Oberpfaffenhofen in 19 km Entfernung angezeigt.

Bericht für EDMO

vom 20.10. um 17:50 UTC

Wind 11 kt aus 170°

Sichtweite 10 km oder mehr

keine Wolken

Temperatur 19.0°C

Taupunkt 7.0°C

Luftfeuchtigkeit 46%

Luftdruck 1010 hPa

EDMO 201750Z AUTO 17011KT 9999 // NCD 19/07 Q1010
Keine Prognose (TAF) verfügbar.
Impressum